Time;durP1;ratioP1;P1;durP2;ratioP2;P2;SDS_P1;SDS_P2;PMS_P1;PMS_P2;Temp;Humidity;BMP_temperature;BMP_pressure;BME280_temperature;BME280_humidity;BME280_pressure;Samples;Min_cycle;Max_cycle;Signal;HPM_P1;HPM_P2
2022/07/10 00:00:12;;;;;;;6.97;4.35;;;16.10;96.30;;;;;;5120100;27;20027;-64
2022/07/10 00:02:41;;;;;;;6.32;4.18;;;16.00;96.50;;;;;;5113994;27;20382;-65
2022/07/10 00:05:09;;;;;;;6.80;4.43;;;16.00;96.60;;;;;;5118168;27;20019;-64
2022/07/10 00:07:35;;;;;;;6.90;4.63;;;15.90;96.70;;;;;;5111222;27;20028;-64
2022/07/10 00:10:01;;;;;;;7.47;4.70;;;15.80;96.80;;;;;;5118974;27;20473;-63
2022/07/10 00:12:27;;;;;;;8.30;4.47;;;15.70;96.90;;;;;;5119636;27;20064;-64
2022/07/10 00:14:53;;;;;;;7.88;4.47;;;15.70;97.00;;;;;;5118383;27;20383;-64
2022/07/10 00:17:19;;;;;;;7.38;4.57;;;15.70;97.20;;;;;;5124227;27;20122;-63
2022/07/10 00:19:44;;;;;;;7.88;4.55;;;15.60;97.20;;;;;;5122771;27;20349;-63
2022/07/10 00:22:10;;;;;;;6.75;4.35;;;15.60;97.20;;;;;;5115489;27;20035;-65
2022/07/10 00:24:36;;;;;;;6.43;4.47;;;15.60;97.40;;;;;;5127785;27;20442;-65
2022/07/10 00:27:03;;;;;;;7.47;4.68;;;15.50;97.40;;;;;;5117759;27;20359;-65
2022/07/10 00:29:28;;;;;;;7.65;4.80;;;15.40;97.40;;;;;;5116911;27;20027;-65
2022/07/10 00:31:57;;;;;;;6.63;5.15;;;15.30;97.40;;;;;;5113536;27;20039;-64
2022/07/10 00:34:23;;;;;;;7.18;5.28;;;15.20;97.30;;;;;;5114071;27;20085;-65
2022/07/10 00:36:49;;;;;;;7.97;4.95;;;15.20;97.40;;;;;;5120224;27;20035;-65
2022/07/10 00:39:15;;;;;;;7.40;4.82;;;15.10;97.50;;;;;;5120634;27;20054;-65
2022/07/10 00:41:41;;;;;;;8.63;5.00;;;15.10;97.50;;;;;;5116034;28;20335;-64
2022/07/10 00:44:07;;;;;;;7.65;4.90;;;15.10;97.60;;;;;;5116724;27;20019;-64
2022/07/10 00:46:35;;;;;;;7.35;4.65;;;15.10;97.60;;;;;;5114705;27;20028;-65
2022/07/10 00:49:01;;;;;;;8.48;5.07;;;15.10;97.60;;;;;;5116444;27;20028;-64
2022/07/10 00:51:29;;;;;;;8.90;5.75;;;15.20;97.60;;;;;;5112075;28;20431;-65
2022/07/10 00:53:56;;;;;;;7.05;4.57;;;15.20;97.60;;;;;;5120925;27;20075;-65
2022/07/10 00:56:26;;;;;;;8.18;4.95;;;15.10;97.60;;;;;;5116277;27;20028;-64
2022/07/10 00:58:53;;;;;;;7.15;4.80;;;15.10;97.70;;;;;;5109550;28;20023;-64
2022/07/10 01:01:19;;;;;;;6.88;4.28;;;15.00;97.50;;;;;;5117547;27;20023;-65
2022/07/10 01:03:46;;;;;;;6.45;4.82;;;15.00;97.70;;;;;;5116572;27;20020;-65
2022/07/10 01:06:13;;;;;;;11.43;5.45;;;14.90;97.50;;;;;;5131319;27;20075;-64
2022/07/10 01:08:39;;;;;;;7.50;5.43;;;14.80;97.60;;;;;;5119748;27;20031;-64
2022/07/10 01:11:06;;;;;;;7.45;6.05;;;14.70;97.50;;;;;;5126020;27;20103;-64
2022/07/10 01:13:35;;;;;;;9.10;5.50;;;14.60;97.20;;;;;;5120427;27;20035;-64
2022/07/10 01:16:00;;;;;;;8.63;6.13;;;14.50;97.30;;;;;;5118499;27;20065;-64
2022/07/10 01:18:28;;;;;;;8.40;5.95;;;14.40;97.00;;;;;;5121824;27;20050;-64
2022/07/10 01:20:57;;;;;;;8.82;6.38;;;14.20;96.70;;;;;;5119826;27;20084;-64
2022/07/10 01:23:23;;;;;;;10.95;6.50;;;14.10;96.20;;;;;;5121472;27;20051;-64
2022/07/10 01:25:50;;;;;;;8.50;6.35;;;14.00;96.10;;;;;;5117569;27;20369;-64
2022/07/10 01:28:17;;;;;;;9.43;5.75;;;13.90;95.90;;;;;;5113696;27;20038;-64
2022/07/10 01:30:44;;;;;;;9.95;6.18;;;13.90;95.80;;;;;;5118381;27;20022;-64
2022/07/10 01:33:10;;;;;;;9.07;5.93;;;13.90;96.00;;;;;;5116833;27;20026;-63
2022/07/10 01:35:36;;;;;;;9.30;5.93;;;13.80;95.80;;;;;;5121708;27;20110;-64
2022/07/10 01:38:02;;;;;;;9.18;6.65;;;13.70;95.60;;;;;;5113628;27;20436;-64
2022/07/10 01:40:28;;;;;;;11.07;7.13;;;13.50;95.20;;;;;;5121718;27;20417;-64
2022/07/10 01:42:54;;;;;;;9.88;6.15;;;13.40;94.80;;;;;;5112422;27;20027;-64
2022/07/10 01:45:20;;;;;;;10.52;6.72;;;13.30;94.60;;;;;;5120129;27;20245;-64
2022/07/10 01:47:45;;;;;;;8.60;6.70;;;13.30;94.20;;;;;;5121107;27;20020;-64
2022/07/10 01:50:12;;;;;;;10.50;7.75;;;13.30;94.00;;;;;;5125189;27;20031;-64
2022/07/10 01:52:38;;;;;;;9.02;7.22;;;13.30;94.00;;;;;;5117442;27;20024;-64
2022/07/10 01:55:05;;;;;;;10.45;7.50;;;13.30;93.70;;;;;;5120416;27;20073;-64
2022/07/10 01:57:32;;;;;;;8.95;6.57;;;13.30;94.00;;;;;;5122026;27;20032;-64
2022/07/10 01:59:58;;;;;;;11.75;8.27;;;13.30;94.10;;;;;;5120255;27;20342;-64
2022/07/10 02:02:24;;;;;;;9.18;7.13;;;13.30;94.10;;;;;;5112933;27;20019;-64
2022/07/10 02:04:50;;;;;;;9.77;7.53;;;13.30;93.90;;;;;;5121732;27;20079;-64
2022/07/10 02:07:21;;;;;;;10.63;7.60;;;13.30;94.30;;;;;;5124960;27;20019;-64
2022/07/10 02:09:47;;;;;;;9.63;7.03;;;13.20;94.30;;;;;;5113745;27;20020;-64
2022/07/10 02:12:15;;;;;;;10.35;7.80;;;13.10;94.10;;;;;;5114058;27;20030;-64
2022/07/10 02:14:42;;;;;;;8.82;6.85;;;13.00;93.90;;;;;;5113400;28;20036;-65
2022/07/10 02:17:11;;;;;;;11.35;8.00;;;12.90;93.40;;;;;;5115260;27;20106;-65
2022/07/10 02:19:37;;;;;;;9.10;6.72;;;12.90;93.30;;;;;;5110563;27;20032;-65
2022/07/10 02:22:03;;;;;;;9.75;8.07;;;12.90;93.40;;;;;;5121037;27;20114;-65
2022/07/10 02:24:29;;;;;;;11.30;7.60;;;12.80;93.40;;;;;;5117245;27;20027;-65
2022/07/10 02:26:56;;;;;;;8.00;6.22;;;12.70;93.20;;;;;;5121344;27;20019;-65
2022/07/10 02:29:25;;;;;;;8.80;6.57;;;12.70;92.90;;;;;;5120499;27;20027;-65
2022/07/10 02:31:51;;;;;;;9.85;7.55;;;12.70;92.60;;;;;;5113702;27;20020;-65
2022/07/10 02:34:19;;;;;;;10.32;7.78;;;12.60;92.80;;;;;;5113771;27;20043;-65
2022/07/10 02:36:44;;;;;;;11.05;9.07;;;12.60;92.60;;;;;;5126219;27;20439;-64
2022/07/10 02:39:10;;;;;;;10.27;7.13;;;12.60;92.60;;;;;;5118786;27;20047;-64
2022/07/10 02:41:37;;;;;;;9.02;7.10;;;12.60;91.90;;;;;;5119102;27;20436;-64
2022/07/10 02:44:04;;;;;;;11.05;7.30;;;12.70;92.10;;;;;;5118200;27;20035;-64
2022/07/10 02:46:30;;;;;;;9.75;7.57;;;12.60;92.10;;;;;;5111182;28;20038;-64
2022/07/10 02:48:58;;;;;;;13.13;8.02;;;12.60;92.20;;;;;;5118068;27;20126;-64
2022/07/10 02:51:24;;;;;;;10.80;7.93;;;12.60;92.20;;;;;;5115198;28;20020;-64
2022/07/10 02:53:50;;;;;;;10.30;7.88;;;12.60;91.80;;;;;;5122211;28;20039;-64
2022/07/10 02:56:15;;;;;;;10.50;7.45;;;12.70;91.80;;;;;;5115747;28;20016;-64
2022/07/10 02:58:43;;;;;;;9.93;7.63;;;12.70;91.70;;;;;;5116223;28;20027;-64
2022/07/10 03:01:08;;;;;;;11.85;8.32;;;12.70;91.30;;;;;;5113684;28;20535;-64
2022/07/10 03:03:35;;;;;;;10.73;7.70;;;12.80;91.90;;;;;;5123188;27;20032;-64
2022/07/10 03:06:00;;;;;;;10.75;7.43;;;12.90;92.00;;;;;;5116113;28;20471;-64
2022/07/10 03:08:26;;;;;;;11.95;8.18;;;12.90;92.30;;;;;;5113199;28;20035;-63
2022/07/10 03:10:52;;;;;;;9.75;7.82;;;12.90;92.30;;;;;;5120274;28;20034;-63
2022/07/10 03:13:18;;;;;;;9.65;7.70;;;12.90;92.60;;;;;;5116017;28;20097;-63
2022/07/10 03:15:44;;;;;;;8.60;7.40;;;12.90;93.00;;;;;;5111460;28;20019;-65
2022/07/10 03:18:10;;;;;;;11.68;8.90;;;12.90;93.10;;;;;;5112903;28;20035;-64
2022/07/10 03:20:36;;;;;;;13.30;9.48;;;13.10;93.20;;;;;;5110425;28;20116;-65
2022/07/10 03:23:03;;;;;;;12.93;9.48;;;13.40;94.20;;;;;;5115784;28;20114;-64
2022/07/10 03:25:29;;;;;;;14.43;9.27;;;13.60;95.20;;;;;;5119252;28;20032;-64
2022/07/10 03:27:55;;;;;;;14.15;10.82;;;13.80;96.10;;;;;;5115056;28;20020;-65
2022/07/10 03:30:23;;;;;;;15.15;11.82;;;14.00;96.30;;;;;;5111329;27;20375;-65
2022/07/10 03:32:49;;;;;;;12.18;10.75;;;14.20;96.60;;;;;;5124237;27;20023;-65
2022/07/10 03:35:15;;;;;;;14.20;10.45;;;14.20;96.80;;;;;;5119077;27;20444;-64
2022/07/10 03:37:42;;;;;;;17.08;12.73;;;14.30;96.80;;;;;;5120846;27;20030;-64
2022/07/10 03:40:09;;;;;;;16.20;12.60;;;14.40;96.70;;;;;;5122367;27;20051;-64
2022/07/10 03:42:35;;;;;;;19.60;14.15;;;14.40;96.70;;;;;;5114125;27;20046;-64
2022/07/10 03:45:00;;;;;;;21.15;15.93;;;14.50;96.70;;;;;;5114295;27;20040;-64
2022/07/10 03:47:26;;;;;;;22.23;16.70;;;14.50;96.80;;;;;;5123837;27;20079;-64
2022/07/10 03:49:52;;;;;;;22.05;16.40;;;14.50;96.70;;;;;;5115823;27;20098;-64
2022/07/10 03:52:18;;;;;;;17.23;14.55;;;14.50;96.70;;;;;;5114766;27;20420;-64
2022/07/10 03:54:44;;;;;;;17.38;14.40;;;14.60;96.80;;;;;;5116175;27;20122;-64
2022/07/10 03:59:54;;;;;;;19.10;14.38;;;14.60;96.90;;;;;;5111503;27;20043;-64
2022/07/10 04:02:20;;;;;;;19.25;15.27;;;14.70;97.00;;;;;;5118372;27;21616;-64
2022/07/10 04:04:46;;;;;;;21.35;17.00;;;14.70;97.00;;;;;;5114421;27;20035;-64
2022/07/10 04:07:16;;;;;;;20.92;17.35;;;14.70;96.90;;;;;;5117528;27;20016;-64
2022/07/10 04:09:41;;;;;;;23.13;18.27;;;14.70;96.20;;;;;;5114990;27;20012;-64
2022/07/10 04:12:08;;;;;;;23.35;19.20;;;14.60;96.10;;;;;;5117368;27;20031;-64
2022/07/10 04:14:34;;;;;;;23.88;18.90;;;14.60;96.00;;;;;;5123494;27;20108;-63
2022/07/10 04:17:00;;;;;;;21.65;18.38;;;14.60;96.10;;;;;;5118261;27;20035;-63
2022/07/10 04:19:26;;;;;;;23.90;18.40;;;14.70;96.30;;;;;;5114778;27;20034;-63
2022/07/10 04:21:52;;;;;;;22.35;17.83;;;14.60;96.30;;;;;;5118873;27;20053;-65
2022/07/10 04:24:17;;;;;;;24.00;19.05;;;14.60;96.30;;;;;;5119028;27;20042;-64
2022/07/10 04:26:44;;;;;;;23.55;19.15;;;14.60;96.50;;;;;;5117518;27;20047;-64
2022/07/10 04:29:10;;;;;;;21.60;19.20;;;14.60;96.30;;;;;;5118519;27;20099;-64
2022/07/10 04:31:36;;;;;;;21.88;19.17;;;14.60;96.40;;;;;;5120563;27;20171;-64
2022/07/10 04:34:02;;;;;;;20.73;16.77;;;14.60;96.40;;;;;;5116826;27;20016;-64
2022/07/10 04:36:28;;;;;;;23.08;17.85;;;14.60;96.40;;;;;;5128059;27;20020;-64
2022/07/10 04:38:54;;;;;;;21.85;18.65;;;14.60;96.50;;;;;;5114058;27;20077;-65
2022/07/10 04:41:19;;;;;;;20.30;17.90;;;14.60;96.70;;;;;;5134633;27;20491;-64
2022/07/10 04:43:45;;;;;;;24.48;18.40;;;14.60;96.50;;;;;;5119321;27;20019;-64
2022/07/10 04:46:11;;;;;;;24.70;21.02;;;14.60;96.70;;;;;;5107652;27;20066;-64
2022/07/10 04:48:37;;;;;;;26.45;20.20;;;14.60;96.80;;;;;;5111484;28;20328;-64
2022/07/10 04:51:03;;;;;;;20.17;18.00;;;14.50;96.70;;;;;;5112611;27;20016;-64
2022/07/10 04:53:29;;;;;;;18.30;16.35;;;14.60;96.40;;;;;;5109571;28;20092;-64
2022/07/10 04:55:55;;;;;;;21.42;19.13;;;14.60;96.60;;;;;;5114072;27;20378;-64
2022/07/10 04:58:21;;;;;;;17.50;15.30;;;14.60;96.50;;;;;;5115933;27;20024;-64
2022/07/10 05:00:46;;;;;;;21.13;16.83;;;14.60;96.30;;;;;;5111902;27;20016;-64
2022/07/10 05:03:12;;;;;;;20.83;17.27;;;14.60;96.40;;;;;;5115993;27;20034;-64
2022/07/10 05:05:38;;;;;;;23.98;18.25;;;14.60;96.40;;;;;;5117234;27;20020;-65
2022/07/10 05:08:04;;;;;;;17.92;16.05;;;14.50;96.40;;;;;;5112853;27;20032;-64
2022/07/10 05:10:30;;;;;;;16.73;14.30;;;14.60;96.50;;;;;;5110362;27;20432;-64
2022/07/10 05:12:56;;;;;;;17.27;14.00;;;14.70;96.80;;;;;;5113318;27;20028;-64
2022/07/10 05:15:22;;;;;;;16.85;15.05;;;14.80;96.90;;;;;;5115404;27;20861;-64
2022/07/10 05:17:48;;;;;;;19.08;14.77;;;14.90;97.50;;;;;;5114125;27;20118;-64
2022/07/10 05:20:14;;;;;;;18.02;15.02;;;14.90;97.50;;;;;;5112065;28;20118;-64
2022/07/10 05:22:40;;;;;;;19.25;16.52;;;14.80;97.20;;;;;;5117780;27;20321;-64
2022/07/10 05:25:07;;;;;;;19.10;15.63;;;14.70;96.90;;;;;;5113932;27;20412;-64
2022/07/10 05:27:32;;;;;;;16.92;13.77;;;14.80;97.20;;;;;;5111541;27;20433;-64
2022/07/10 05:29:58;;;;;;;15.52;13.02;;;14.90;97.40;;;;;;5121062;27;20039;-64
2022/07/10 05:32:25;;;;;;;16.40;13.65;;;15.00;97.70;;;;;;5116983;27;20024;-64
2022/07/10 05:34:51;;;;;;;16.90;14.13;;;15.10;98.00;;;;;;5113313;28;20456;-64
2022/07/10 05:37:17;;;;;;;17.33;12.70;;;15.00;98.00;;;;;;5108298;27;20039;-64
2022/07/10 05:39:43;;;;;;;14.57;11.40;;;15.10;98.00;;;;;;5111337;27;20019;-64
2022/07/10 05:42:09;;;;;;;14.85;12.57;;;15.20;98.00;;;;;;5113023;27;20436;-64
2022/07/10 05:44:36;;;;;;;17.75;12.57;;;15.30;98.00;;;;;;5122479;27;20067;-64
2022/07/10 05:47:02;;;;;;;15.95;12.40;;;15.20;98.00;;;;;;5117509;27;20475;-64
2022/07/10 05:49:27;;;;;;;17.40;12.02;;;15.00;98.00;;;;;;5113046;27;20153;-64
2022/07/10 05:51:53;;;;;;;18.50;12.25;;;15.00;98.00;;;;;;5113730;28;20054;-65
2022/07/10 05:54:19;;;;;;;14.95;11.27;;;15.10;98.00;;;;;;5122591;27;20062;-64
2022/07/10 05:56:45;;;;;;;13.98;10.90;;;15.20;98.00;;;;;;5113441;27;20027;-64
2022/07/10 05:59:13;;;;;;;14.35;10.70;;;15.20;98.00;;;;;;5114233;28;20027;-63
2022/07/10 06:01:39;;;;;;;13.65;10.18;;;15.00;98.00;;;;;;5116942;27;20444;-63
2022/07/10 06:04:05;;;;;;;13.57;9.60;;;14.90;98.00;;;;;;5110538;27;20027;-63
2022/07/10 06:06:30;;;;;;;11.93;10.00;;;14.90;98.00;;;;;;5117032;27;20103;-64
2022/07/10 06:08:56;;;;;;;12.77;8.70;;;14.90;98.00;;;;;;5112302;27;20020;-64
2022/07/10 06:11:21;;;;;;;15.27;9.10;;;15.00;98.00;;;;;;5112574;27;20051;-66
2022/07/10 06:13:47;;;;;;;13.15;8.43;;;15.10;98.00;;;;;;5109626;28;20047;-66
2022/07/10 06:16:13;;;;;;;15.35;8.68;;;15.00;98.00;;;;;;5107013;27;20046;-65
2022/07/10 06:18:38;;;;;;;11.75;7.63;;;14.90;98.00;;;;;;5109061;27;20329;-65
2022/07/10 06:21:07;;;;;;;12.70;8.07;;;14.80;98.00;;;;;;5125283;27;20019;-64
2022/07/10 06:23:36;;;;;;;14.93;8.15;;;14.80;98.00;;;;;;5114724;27;20038;-64
2022/07/10 06:26:02;;;;;;;12.55;7.40;;;14.80;98.00;;;;;;5109374;28;20320;-64
2022/07/10 06:28:30;;;;;;;10.02;7.85;;;14.80;98.00;;;;;;5104422;28;20019;-65
2022/07/10 06:30:56;;;;;;;11.60;8.23;;;14.80;98.00;;;;;;5114465;28;20051;-64
2022/07/10 06:33:24;;;;;;;10.88;7.40;;;14.70;98.00;;;;;;5112382;27;20421;-64
2022/07/10 06:35:50;;;;;;;12.52;6.90;;;14.60;98.00;;;;;;5110180;28;20329;-64
2022/07/10 06:38:15;;;;;;;15.63;6.88;;;14.60;98.00;;;;;;5109308;27;20123;-64
2022/07/10 06:40:42;;;;;;;11.60;7.10;;;14.70;98.00;;;;;;5115004;27;20046;-64
2022/07/10 06:43:07;;;;;;;8.95;6.18;;;14.70;98.00;;;;;;5116441;28;20016;-64
2022/07/10 06:45:33;;;;;;;13.55;7.18;;;14.70;98.00;;;;;;5122130;27;20336;-64
2022/07/10 06:47:59;;;;;;;11.25;7.32;;;14.80;98.00;;;;;;5111022;28;20030;-63
2022/07/10 06:50:27;;;;;;;10.40;6.57;;;14.70;98.00;;;;;;5116084;28;20023;-64
2022/07/10 06:52:53;;;;;;;9.15;6.68;;;14.60;98.00;;;;;;5118204;28;20026;-63
2022/07/10 06:55:20;;;;;;;9.98;6.25;;;14.60;98.00;;;;;;5114096;28;20424;-64
2022/07/10 06:57:45;;;;;;;11.57;6.38;;;14.60;98.00;;;;;;5113578;28;20054;-64
2022/07/10 07:00:11;;;;;;;9.75;5.97;;;14.80;98.00;;;;;;5109240;28;20023;-64
2022/07/10 07:02:38;;;;;;;12.18;6.13;;;15.00;98.00;;;;;;5116089;28;20407;-64
2022/07/10 07:05:04;;;;;;;8.05;5.50;;;15.20;98.00;;;;;;5116181;27;20035;-63
2022/07/10 07:07:30;;;;;;;10.82;5.28;;;15.40;98.00;;;;;;5118832;27;20023;-64
2022/07/10 07:09:55;;;;;;;8.18;4.93;;;15.70;97.60;;;;;;5118569;27;21650;-63
2022/07/10 07:12:21;;;;;;;10.85;4.85;;;16.10;96.90;;;;;;5116318;28;20024;-64
2022/07/10 07:14:47;;;;;;;8.23;4.75;;;16.80;95.10;;;;;;5118226;27;20032;-63
2022/07/10 07:17:14;;;;;;;7.93;4.20;;;17.00;93.90;;;;;;5116967;28;20051;-64
2022/07/10 07:25:10;;;;;;;;;;;17.00;92.60;;;;;;5107974;27;20348;-64
2022/07/10 07:27:38;;;;;;;9.52;4.13;;;16.90;92.70;;;;;;5114568;27;19912;-64
2022/07/10 07:30:16;;;;;;;6.75;3.78;;;16.70;93.20;;;;;;5116426;27;20027;-64
2022/07/10 07:32:43;;;;;;;9.98;4.32;;;16.50;93.40;;;;;;5113723;28;20106;-64
2022/07/10 07:35:13;;;;;;;10.10;4.45;;;16.50;93.60;;;;;;5108779;27;20361;-63
2022/07/10 07:37:39;;;;;;;9.70;3.90;;;16.50;93.30;;;;;;5110990;27;20032;-64
2022/07/10 07:40:08;;;;;;;7.03;3.70;;;16.40;93.10;;;;;;5119681;27;20043;-64
2022/07/10 07:42:34;;;;;;;7.22;3.42;;;16.20;93.50;;;;;;5113453;27;20428;-64
2022/07/10 07:45:00;;;;;;;8.25;3.10;;;16.20;93.30;;;;;;5114561;27;20039;-64
2022/07/10 07:47:26;;;;;;;14.32;4.50;;;16.30;93.20;;;;;;5113434;27;20027;-64
2022/07/10 07:49:52;;;;;;;12.13;3.85;;;16.40;92.50;;;;;;5121289;27;20089;-64
2022/07/10 07:52:17;;;;;;;7.55;3.38;;;16.40;92.30;;;;;;5121640;27;20432;-63
2022/07/10 07:54:43;;;;;;;7.20;3.20;;;16.50;91.80;;;;;;5117220;28;20028;-64
2022/07/10 07:57:09;;;;;;;10.45;3.38;;;16.80;91.20;;;;;;5115898;27;20303;-64
2022/07/10 07:59:34;;;;;;;5.97;3.00;;;17.10;90.60;;;;;;5113842;27;20023;-64
2022/07/10 08:02:00;;;;;;;8.68;3.40;;;17.00;90.20;;;;;;5114179;28;20115;-64
2022/07/10 08:04:26;;;;;;;9.00;3.42;;;17.00;90.00;;;;;;5119076;27;20027;-64
2022/07/10 08:06:53;;;;;;;7.88;3.30;;;16.70;91.30;;;;;;5122855;27;20020;-64
2022/07/10 08:09:20;;;;;;;6.50;3.17;;;16.70;90.40;;;;;;5116281;27;20417;-64
2022/07/10 08:11:46;;;;;;;8.32;3.10;;;17.10;91.00;;;;;;5118751;27;20022;-64
2022/07/10 08:14:12;;;;;;;7.35;2.60;;;18.00;88.40;;;;;;5118093;27;20110;-63
2022/07/10 08:16:38;;;;;;;6.50;2.53;;;19.50;83.10;;;;;;5111865;28;20028;-64
2022/07/10 08:19:06;;;;;;;7.30;2.50;;;21.10;80.20;;;;;;5112370;28;20039;-64
2022/07/10 08:21:32;;;;;;;7.03;2.50;;;21.60;75.70;;;;;;5114887;27;20089;-64
2022/07/10 08:23:58;;;;;;;5.25;2.17;;;21.30;75.80;;;;;;5115114;27;20407;-64
2022/07/10 08:26:24;;;;;;;6.25;2.30;;;20.90;77.90;;;;;;5113987;28;20337;-64
2022/07/10 08:28:51;;;;;;;8.00;2.70;;;21.10;76.60;;;;;;5118562;27;20412;-63
2022/07/10 08:31:17;;;;;;;7.75;2.47;;;20.20;78.40;;;;;;5108468;27;20039;-64
2022/07/10 08:33:43;;;;;;;5.70;2.20;;;20.10;79.10;;;;;;5093512;28;20032;-64
2022/07/10 08:36:08;;;;;;;11.93;2.72;;;20.40;79.50;;;;;;5107723;27;20032;-64
2022/07/10 08:38:37;;;;;;;6.28;2.17;;;21.30;75.60;;;;;;5107220;27;20032;-65
2022/07/10 08:41:05;;;;;;;6.43;2.17;;;21.90;74.10;;;;;;5111479;27;20035;-64
2022/07/10 08:43:32;;;;;;;9.05;2.38;;;22.00;75.10;;;;;;5115445;27;20100;-65
2022/07/10 08:45:58;;;;;;;7.97;2.13;;;22.40;73.70;;;;;;5115207;27;20377;-64
2022/07/10 08:48:24;;;;;;;6.47;2.40;;;22.10;74.00;;;;;;5112992;28;20076;-65
2022/07/10 08:50:56;;;;;;;5.82;2.20;;;21.70;74.00;;;;;;5118343;27;20059;-64
2022/07/10 08:53:30;;;;;;;4.97;2.28;;;22.40;73.60;;;;;;5112434;28;20409;-64
2022/07/10 08:55:56;;;;;;;6.20;2.20;;;22.70;68.80;;;;;;5115225;28;20273;-64
2022/07/10 08:58:23;;;;;;;9.23;2.55;;;22.60;69.90;;;;;;5113852;28;20357;-64
2022/07/10 09:00:49;;;;;;;6.10;2.38;;;22.60;69.70;;;;;;5114692;28;20413;-64
2022/07/10 09:03:15;;;;;;;4.57;2.08;;;22.90;70.20;;;;;;5109389;28;20036;-64
2022/07/10 09:05:41;;;;;;;5.85;2.25;;;24.50;68.70;;;;;;5116740;27;20027;-67
2022/07/10 09:08:33;;;;;;;5.13;2.20;;;25.90;63.90;;;;;;5111839;27;20020;-66
2022/07/10 09:11:15;;;;;;;6.72;1.90;;;25.40;63.60;;;;;;5113443;28;20032;-64
2022/07/10 09:13:59;;;;;;;6.90;2.00;;;24.30;66.00;;;;;;5106140;28;20019;-65
2022/07/10 09:16:32;;;;;;;6.28;2.08;;;23.20;69.30;;;;;;5109394;28;20092;-64
2022/07/10 09:19:23;;;;;;;6.85;2.03;;;24.20;67.80;;;;;;5113486;28;20055;-65
2022/07/10 09:21:54;;;;;;;6.55;1.90;;;25.00;65.10;;;;;;5113989;28;20055;-65
2022/07/10 09:24:21;;;;;;;5.40;2.00;;;24.90;65.30;;;;;;5113736;27;20084;-64
2022/07/10 09:27:01;;;;;;;5.70;1.98;;;24.50;64.80;;;;;;5107862;27;20348;-65
2022/07/10 09:29:27;;;;;;;4.75;1.70;;;25.40;63.60;;;;;;5112539;28;20019;-65
2022/07/10 09:31:57;;;;;;;3.80;1.67;;;26.90;60.90;;;;;;5107586;27;21350;-65
2022/07/10 09:36:04;;;;;;;6.25;2.20;;;25.50;62.10;;;;;;5114185;27;20416;-63
2022/07/10 09:37:39;;;;;;;5.35;2.40;;;22.80;67.20;;;;;;5111804;27;20325;-64
2022/07/10 09:40:07;;;;;;;7.38;2.25;;;21.40;72.00;;;;;;5108915;27;20125;-64
2022/07/10 09:42:47;;;;;;;5.32;1.90;;;21.40;73.10;;;;;;5098582;28;20020;-63
2022/07/10 09:45:12;;;;;;;4.15;1.80;;;22.60;71.90;;;;;;5108327;28;20097;-64
2022/07/10 09:48:02;;;;;;;4.63;2.00;;;23.00;69.40;;;;;;5104813;28;20742;-64
2022/07/10 09:50:33;;;;;;;7.03;2.38;;;23.40;68.00;;;;;;5103567;28;20086;-64
2022/07/10 09:53:09;;;;;;;5.30;2.20;;;22.90;68.20;;;;;;5111722;27;20024;-64
2022/07/10 09:55:35;;;;;;;5.50;2.13;;;23.00;67.70;;;;;;5112664;27;20405;-64
2022/07/10 09:58:09;;;;;;;5.43;2.17;;;24.20;65.70;;;;;;5112760;28;20039;-64
2022/07/10 10:00:39;;;;;;;7.38;2.03;;;24.00;64.20;;;;;;5111857;28;20032;-64
2022/07/10 10:03:08;;;;;;;5.15;2.47;;;23.20;65.80;;;;;;5114199;28;20028;-63
2022/07/10 10:05:53;;;;;;;6.75;2.30;;;21.30;69.10;;;;;;5115681;28;20110;-64
2022/07/10 10:08:19;;;;;;;6.75;2.30;;;20.40;72.50;;;;;;5112736;28;20035;-64
2022/07/10 10:10:48;;;;;;;7.38;2.50;;;20.10;72.70;;;;;;5115138;28;20024;-64
2022/07/10 10:13:23;;;;;;;6.85;3.00;;;20.00;73.30;;;;;;5126890;27;20027;-65
2022/07/10 10:15:50;;;;;;;6.13;2.55;;;20.00;73.00;;;;;;5114368;28;20030;-64
2022/07/10 10:18:19;;;;;;;9.05;1.92;;;20.80;72.30;;;;;;5112646;28;20032;-64
2022/07/10 10:20:46;;;;;;;6.10;2.20;;;22.20;68.20;;;;;;5117359;27;20424;-64
2022/07/10 10:23:22;;;;;;;6.18;2.00;;;23.40;66.30;;;;;;5113162;28;20031;-64
2022/07/10 10:25:50;;;;;;;5.35;2.08;;;23.40;64.40;;;;;;5122086;27;20050;-65
2022/07/10 10:28:20;;;;;;;8.40;2.50;;;23.20;64.50;;;;;;5136544;27;20416;-64
2022/07/10 10:30:47;;;;;;;5.25;1.90;;;22.30;66.50;;;;;;5126655;27;20170;-63
2022/07/10 10:33:39;;;;;;;5.53;2.00;;;21.90;68.80;;;;;;5115995;28;20024;-64
2022/07/10 10:36:06;;;;;;;4.95;1.92;;;23.20;66.20;;;;;;5112735;28;20024;-64
2022/07/10 10:38:51;;;;;;;5.57;1.80;;;23.70;64.10;;;;;;5114715;28;20028;-64
2022/07/10 10:41:28;;;;;;;4.80;2.05;;;24.30;62.20;;;;;;5115746;28;20024;-64
2022/07/10 10:44:13;;;;;;;6.32;1.88;;;24.50;62.30;;;;;;5115114;28;20081;-63
2022/07/10 10:46:53;;;;;;;5.35;1.90;;;22.90;64.10;;;;;;5062999;28;20426;-64
2022/07/10 10:49:23;;;;;;;4.80;1.88;;;22.90;65.90;;;;;;5057463;28;20334;-64
2022/07/10 10:52:03;;;;;;;5.88;1.77;;;24.00;64.70;;;;;;5068672;28;20031;-63
2022/07/10 10:54:48;;;;;;;4.47;1.70;;;24.20;61.80;;;;;;5057512;28;20069;-64
2022/07/10 10:57:16;;;;;;;4.68;1.92;;;24.00;62.40;;;;;;5064342;28;20025;-64
2022/07/10 10:59:46;;;;;;;4.80;1.70;;;22.50;64.20;;;;;;5068485;28;20143;-64
2022/07/10 11:02:30;;;;;;;5.03;2.08;;;22.00;65.50;;;;;;5066744;28;20033;-64
2022/07/10 11:05:10;;;;;;;4.63;1.80;;;22.90;65.50;;;;;;5064439;28;20028;-65
2022/07/10 11:07:57;;;;;;;4.68;1.88;;;23.30;62.70;;;;;;5067556;28;20020;-63
2022/07/10 11:10:29;;;;;;;4.80;1.90;;;23.40;63.80;;;;;;5075635;28;20021;-64
2022/07/10 11:13:00;;;;;;;7.18;2.00;;;24.10;61.80;;;;;;5094907;28;20322;-63
2022/07/10 11:15:30;;;;;;;4.63;2.20;;;24.40;60.50;;;;;;5087775;28;20065;-64
2022/07/10 11:17:57;;;;;;;5.18;1.70;;;24.20;61.50;;;;;;5074580;28;20414;-64
2022/07/10 11:20:23;;;;;;;6.43;2.25;;;24.90;61.10;;;;;;5059668;28;20024;-64
2022/07/10 11:22:52;;;;;;;5.13;2.03;;;24.90;59.90;;;;;;5065151;28;20029;-64
2022/07/10 11:25:50;;;;;;;5.55;1.70;;;23.60;62.00;;;;;;5056447;28;20036;-65
2022/07/10 11:28:24;;;;;;;4.25;1.50;;;23.20;63.00;;;;;;5060588;28;20020;-64
2022/07/10 11:30:53;;;;;;;3.88;1.60;;;23.90;61.00;;;;;;5073379;28;20079;-64
2022/07/10 11:33:20;;;;;;;5.18;1.70;;;23.70;61.50;;;;;;5072902;28;20057;-63
2022/07/10 11:35:52;;;;;;;5.50;1.90;;;22.80;63.60;;;;;;5076345;28;20041;-64
2022/07/10 11:38:22;;;;;;;4.38;1.90;;;22.60;64.30;;;;;;5059040;28;20112;-63
2022/07/10 11:40:48;;;;;;;3.78;1.60;;;22.20;65.10;;;;;;5075356;28;20020;-64
2022/07/10 11:43:16;;;;;;;8.75;2.15;;;22.40;66.60;;;;;;5075037;28;20057;-64
2022/07/10 11:45:43;;;;;;;6.68;2.10;;;23.10;65.20;;;;;;5104499;28;20044;-64
2022/07/10 11:48:21;;;;;;;5.60;1.88;;;23.40;63.90;;;;;;5114797;28;20046;-63
2022/07/10 11:50:47;;;;;;;5.75;1.80;;;23.90;63.00;;;;;;5116962;28;20359;-64
2022/07/10 11:53:13;;;;;;;4.95;1.60;;;24.50;62.00;;;;;;5118540;28;20032;-64
2022/07/10 11:55:40;;;;;;;4.90;1.95;;;24.40;59.90;;;;;;5119302;28;20598;-63
2022/07/10 11:58:17;;;;;;;5.05;2.08;;;24.30;62.00;;;;;;5119588;28;20039;-63
2022/07/10 12:00:43;;;;;;;5.75;1.70;;;24.90;60.50;;;;;;5118122;28;20024;-66
2022/07/10 12:03:20;;;;;;;5.82;2.15;;;24.10;62.40;;;;;;5117927;28;20032;-65
2022/07/10 12:05:47;;;;;;;5.03;2.00;;;22.80;63.70;;;;;;5119356;28;20070;-64
2022/07/10 12:08:13;;;;;;;5.18;1.98;;;23.20;63.80;;;;;;5118088;28;20047;-64
2022/07/10 12:10:41;;;;;;;6.05;2.20;;;23.30;63.80;;;;;;5119104;28;20020;-65
2022/07/10 12:13:12;;;;;;;5.65;2.30;;;22.10;64.20;;;;;;5119344;28;20024;-65
2022/07/10 12:15:40;;;;;;;5.95;1.98;;;21.90;67.00;;;;;;5119123;28;20526;-65
2022/07/10 12:18:19;;;;;;;5.53;2.10;;;22.90;64.40;;;;;;5118212;28;20039;-65
2022/07/10 12:20:47;;;;;;;6.40;1.90;;;23.60;65.20;;;;;;5119042;27;20028;-64
2022/07/10 12:23:16;;;;;;;6.38;2.25;;;24.10;62.70;;;;;;5117719;28;20051;-64
2022/07/10 12:25:43;;;;;;;7.57;2.20;;;23.50;63.90;;;;;;5118657;28;20023;-64
2022/07/10 12:28:09;;;;;;;4.40;2.00;;;23.80;62.20;;;;;;5118993;28;20199;-65
2022/07/10 12:30:46;;;;;;;5.88;1.67;;;24.10;61.50;;;;;;5117055;28;20103;-65
2022/07/10 12:33:19;;;;;;;5.35;1.83;;;24.30;63.10;;;;;;5118538;28;20055;-65
2022/07/10 12:35:55;;;;;;;4.65;1.75;;;24.50;61.60;;;;;;5118773;28;20020;-64
2022/07/10 12:38:26;;;;;;;5.45;2.03;;;24.20;63.00;;;;;;5117577;28;20069;-64
2022/07/10 12:41:10;;;;;;;5.25;1.92;;;23.30;62.90;;;;;;5118708;28;20019;-64
2022/07/10 12:43:36;;;;;;;4.63;1.70;;;23.50;63.30;;;;;;5118665;28;20027;-64
2022/07/10 12:46:15;;;;;;;6.18;2.20;;;23.30;63.10;;;;;;5117274;28;20048;-64
2022/07/10 12:48:46;;;;;;;4.47;1.70;;;23.90;63.00;;;;;;5118438;27;20092;-64
2022/07/10 12:51:23;;;;;;;5.25;1.80;;;23.70;61.20;;;;;;5118544;28;20026;-64
2022/07/10 12:53:49;;;;;;;5.80;1.85;;;22.40;63.60;;;;;;5117250;28;20129;-64